Portada
METAR-TAF:

METAR-TAF

Aeroports :

Base aèria

Tulln an der Donau, Àustria

latitud: 48-19N, longitud: 016-07E, altitud: 175 m

METAR: manca

Hora: 15:17 (13:17 UTC)

Pronòstic

L'informe es va fer fa 2 hores i 2 minuts, a les 11:15 UTC
Pronòstic vàlid del 07 a les 12 UTC al 07 a les 21 UTC
Vent 7 kt del Oest
Visibilitat 10 km o més
Cel ennuvolat a una alçada de 5000 ft
Temporalment
l' 07 a les 12 UTC al 07 a les 18 UTC
Vent 12 kt del Nord-Oest
Núvols disperses a una alçada de 5000 ft

TAF: LOXT 071115Z 0712/0721 28007KT 9999 BKN050 TEMPO 0712/0718 32012KT SCT050

Observacions i pronòstics meteorològics de més de 4000 aeroports (METAR i TAF).

Les estacions disponibles són els punts grocs i vermells al mapa.

Posi el ratolí al punt desitjat per veure el nom de l'estació.

Feu clic per veure les observacions i els pronòstics meteorològics.

Per canviar el mapa: feu clic els botons verds amb una creu de color negre per apropar; al botó verd amb un guió per allunyar la imatge; o en les fletxes verdes per a mapes adjacents.


METAR-TAF: